sensor_id;sensor_type;location;lat;lon;timestamp;temperature;humidity
5278;DHT22;2662;51.194;6.614;2022-12-16T00:01:19;-5.70;99.90
5278;DHT22;2662;51.194;6.614;2022-12-16T00:03:48;-5.70;99.90
5278;DHT22;2662;51.194;6.614;2022-12-16T00:06:15;-5.70;99.90
5278;DHT22;2662;51.194;6.614;2022-12-16T00:08:42;-5.70;99.90
5278;DHT22;2662;51.194;6.614;2022-12-16T00:11:09;-5.70;99.90
5278;DHT22;2662;51.194;6.614;2022-12-16T00:13:37;-5.70;99.90
5278;DHT22;2662;51.194;6.614;2022-12-16T00:16:08;-5.70;99.90
5278;DHT22;2662;51.194;6.614;2022-12-16T00:18:35;-5.70;99.90
5278;DHT22;2662;51.194;6.614;2022-12-16T00:21:03;-5.70;99.90
5278;DHT22;2662;51.194;6.614;2022-12-16T00:23:30;-5.70;99.90
5278;DHT22;2662;51.194;6.614;2022-12-16T00:25:58;-5.60;99.90
5278;DHT22;2662;51.194;6.614;2022-12-16T00:28:26;-5.60;99.90
5278;DHT22;2662;51.194;6.614;2022-12-16T00:30:54;-5.60;99.90
5278;DHT22;2662;51.194;6.614;2022-12-16T00:33:24;-5.60;99.90
5278;DHT22;2662;51.194;6.614;2022-12-16T00:35:52;-5.50;99.90
5278;DHT22;2662;51.194;6.614;2022-12-16T00:38:19;-5.50;99.90
5278;DHT22;2662;51.194;6.614;2022-12-16T00:40:46;-5.50;99.90
5278;DHT22;2662;51.194;6.614;2022-12-16T00:43:13;-5.50;99.90
5278;DHT22;2662;51.194;6.614;2022-12-16T00:45:39;-5.50;99.90
5278;DHT22;2662;51.194;6.614;2022-12-16T00:48:06;-5.50;99.90
5278;DHT22;2662;51.194;6.614;2022-12-16T00:50:35;-5.50;99.90
5278;DHT22;2662;51.194;6.614;2022-12-16T00:53:02;-5.60;99.90
5278;DHT22;2662;51.194;6.614;2022-12-16T00:55:28;-5.60;99.90
5278;DHT22;2662;51.194;6.614;2022-12-16T00:57:55;-5.60;99.90
5278;DHT22;2662;51.194;6.614;2022-12-16T01:00:22;-5.60;99.90
5278;DHT22;2662;51.194;6.614;2022-12-16T01:02:50;-5.60;99.90
5278;DHT22;2662;51.194;6.614;2022-12-16T01:05:19;-5.60;99.90
5278;DHT22;2662;51.194;6.614;2022-12-16T01:07:47;-5.60;99.90
5278;DHT22;2662;51.194;6.614;2022-12-16T01:10:14;-5.60;99.90
5278;DHT22;2662;51.194;6.614;2022-12-16T01:12:41;-5.60;99.90
5278;DHT22;2662;51.194;6.614;2022-12-16T01:15:08;-5.70;99.90
5278;DHT22;2662;51.194;6.614;2022-12-16T01:17:37;-5.70;99.90
5278;DHT22;2662;51.194;6.614;2022-12-16T01:20:05;-5.60;99.90
5278;DHT22;2662;51.194;6.614;2022-12-16T01:22:32;-5.60;99.90
5278;DHT22;2662;51.194;6.614;2022-12-16T01:25:01;-5.60;99.90
5278;DHT22;2662;51.194;6.614;2022-12-16T01:27:28;-5.60;99.90
5278;DHT22;2662;51.194;6.614;2022-12-16T01:29:55;-5.60;99.90
5278;DHT22;2662;51.194;6.614;2022-12-16T01:32:22;-5.60;99.90
5278;DHT22;2662;51.194;6.614;2022-12-16T01:34:50;-5.60;99.90
5278;DHT22;2662;51.194;6.614;2022-12-16T01:37:17;-5.60;99.90
5278;DHT22;2662;51.194;6.614;2022-12-16T01:39:44;-5.60;99.90
5278;DHT22;2662;51.194;6.614;2022-12-16T01:42:13;-5.60;99.90
5278;DHT22;2662;51.194;6.614;2022-12-16T01:44:41;-5.70;99.90
5278;DHT22;2662;51.194;6.614;2022-12-16T01:47:14;-5.60;99.90
5278;DHT22;2662;51.194;6.614;2022-12-16T01:49:43;-5.70;99.90
5278;DHT22;2662;51.194;6.614;2022-12-16T01:52:15;-5.50;99.90
5278;DHT22;2662;51.194;6.614;2022-12-16T01:54:48;-5.70;99.90
5278;DHT22;2662;51.194;6.614;2022-12-16T01:57:21;-5.70;99.90
5278;DHT22;2662;51.194;6.614;2022-12-16T01:59:50;-5.70;99.90
5278;DHT22;2662;51.194;6.614;2022-12-16T02:02:19;-5.80;99.90
5278;DHT22;2662;51.194;6.614;2022-12-16T02:04:46;-5.80;99.90
5278;DHT22;2662;51.194;6.614;2022-12-16T02:07:27;-5.80;99.90
5278;DHT22;2662;51.194;6.614;2022-12-16T02:09:54;-5.80;99.90
5278;DHT22;2662;51.194;6.614;2022-12-16T02:12:27;-5.90;99.90
5278;DHT22;2662;51.194;6.614;2022-12-16T02:15:14;-5.80;99.90
5278;DHT22;2662;51.194;6.614;2022-12-16T02:17:49;-5.80;99.90
5278;DHT22;2662;51.194;6.614;2022-12-16T02:29:53;-5.90;99.90
5278;DHT22;2662;51.194;6.614;2022-12-16T02:32:27;-6.00;99.90
5278;DHT22;2662;51.194;6.614;2022-12-16T02:34:59;-5.90;99.90
5278;DHT22;2662;51.194;6.614;2022-12-16T02:37:36;-6.00;99.90
5278;DHT22;2662;51.194;6.614;2022-12-16T02:40:09;-6.00;99.90
5278;DHT22;2662;51.194;6.614;2022-12-16T02:42:41;-6.00;99.90
5278;DHT22;2662;51.194;6.614;2022-12-16T02:45:14;-6.00;99.90
5278;DHT22;2662;51.194;6.614;2022-12-16T02:47:43;-5.90;99.90
5278;DHT22;2662;51.194;6.614;2022-12-16T02:50:16;-5.90;99.90
5278;DHT22;2662;51.194;6.614;2022-12-16T02:52:43;-5.90;99.90
5278;DHT22;2662;51.194;6.614;2022-12-16T02:55:10;-5.90;99.90
5278;DHT22;2662;51.194;6.614;2022-12-16T02:57:59;-5.90;99.90
5278;DHT22;2662;51.194;6.614;2022-12-16T03:00:32;-5.90;99.90
5278;DHT22;2662;51.194;6.614;2022-12-16T03:03:06;-5.90;99.90
5278;DHT22;2662;51.194;6.614;2022-12-16T03:05:37;-5.90;99.90
5278;DHT22;2662;51.194;6.614;2022-12-16T03:08:08;-5.80;99.90
5278;DHT22;2662;51.194;6.614;2022-12-16T03:10:39;-5.90;99.90
5278;DHT22;2662;51.194;6.614;2022-12-16T03:13:09;-5.90;99.90
5278;DHT22;2662;51.194;6.614;2022-12-16T03:15:38;-5.80;99.90
5278;DHT22;2662;51.194;6.614;2022-12-16T03:18:08;-5.80;99.90
5278;DHT22;2662;51.194;6.614;2022-12-16T03:20:41;-5.80;99.90
5278;DHT22;2662;51.194;6.614;2022-12-16T03:23:12;-5.80;99.90
5278;DHT22;2662;51.194;6.614;2022-12-16T03:25:43;-5.80;99.90
5278;DHT22;2662;51.194;6.614;2022-12-16T03:28:19;-5.80;99.90
5278;DHT22;2662;51.194;6.614;2022-12-16T03:30:53;-5.90;99.90
5278;DHT22;2662;51.194;6.614;2022-12-16T03:33:27;-5.90;99.90
5278;DHT22;2662;51.194;6.614;2022-12-16T03:35:59;-5.80;99.90
5278;DHT22;2662;51.194;6.614;2022-12-16T03:38:27;-5.80;99.90
5278;DHT22;2662;51.194;6.614;2022-12-16T03:40:56;-5.90;99.90
5278;DHT22;2662;51.194;6.614;2022-12-16T03:43:24;-5.90;99.90
5278;DHT22;2662;51.194;6.614;2022-12-16T03:45:53;-5.90;99.90
5278;DHT22;2662;51.194;6.614;2022-12-16T03:48:24;-6.00;99.90
5278;DHT22;2662;51.194;6.614;2022-12-16T03:50:51;-6.00;99.90
5278;DHT22;2662;51.194;6.614;2022-12-16T03:53:18;-6.00;99.90
5278;DHT22;2662;51.194;6.614;2022-12-16T03:55:46;-6.00;99.90
5278;DHT22;2662;51.194;6.614;2022-12-16T03:58:12;-5.90;99.90
5278;DHT22;2662;51.194;6.614;2022-12-16T04:00:39;-5.90;99.90
5278;DHT22;2662;51.194;6.614;2022-12-16T04:03:06;-5.90;99.90
5278;DHT22;2662;51.194;6.614;2022-12-16T04:05:34;-5.90;99.90
5278;DHT22;2662;51.194;6.614;2022-12-16T04:08:01;-5.90;99.90
5278;DHT22;2662;51.194;6.614;2022-12-16T04:10:28;-6.00;99.90
5278;DHT22;2662;51.194;6.614;2022-12-16T04:13:12;-5.90;99.90
5278;DHT22;2662;51.194;6.614;2022-12-16T04:15:55;-5.80;99.90
5278;DHT22;2662;51.194;6.614;2022-12-16T04:18:40;-5.90;99.90
5278;DHT22;2662;51.194;6.614;2022-12-16T04:21:25;-6.00;99.90
5278;DHT22;2662;51.194;6.614;2022-12-16T04:24:14;-6.00;99.90
5278;DHT22;2662;51.194;6.614;2022-12-16T04:26:44;-5.90;99.90
5278;DHT22;2662;51.194;6.614;2022-12-16T04:29:29;-6.00;99.90
5278;DHT22;2662;51.194;6.614;2022-12-16T04:31:56;-6.00;99.90
5278;DHT22;2662;51.194;6.614;2022-12-16T04:34:23;-6.00;99.90
5278;DHT22;2662;51.194;6.614;2022-12-16T04:36:56;-5.90;99.90
5278;DHT22;2662;51.194;6.614;2022-12-16T04:39:41;-5.90;99.90
5278;DHT22;2662;51.194;6.614;2022-12-16T04:42:25;-5.90;99.90
5278;DHT22;2662;51.194;6.614;2022-12-16T04:45:09;-5.90;99.90
5278;DHT22;2662;51.194;6.614;2022-12-16T04:47:54;-6.00;99.90
5278;DHT22;2662;51.194;6.614;2022-12-16T04:50:39;-6.00;99.90
5278;DHT22;2662;51.194;6.614;2022-12-16T04:53:25;-6.10;99.90
5278;DHT22;2662;51.194;6.614;2022-12-16T04:56:10;-6.10;99.90
5278;DHT22;2662;51.194;6.614;2022-12-16T04:58:54;-6.10;99.90
5278;DHT22;2662;51.194;6.614;2022-12-16T05:01:39;-6.10;99.90
5278;DHT22;2662;51.194;6.614;2022-12-16T05:04:23;-6.10;99.90
5278;DHT22;2662;51.194;6.614;2022-12-16T05:07:07;-6.20;99.90
5278;DHT22;2662;51.194;6.614;2022-12-16T05:09:53;-6.20;99.90
5278;DHT22;2662;51.194;6.614;2022-12-16T05:12:37;-6.20;99.90
5278;DHT22;2662;51.194;6.614;2022-12-16T05:15:22;-6.20;99.90
5278;DHT22;2662;51.194;6.614;2022-12-16T05:18:09;-6.20;99.90
5278;DHT22;2662;51.194;6.614;2022-12-16T05:20:55;-6.30;99.90
5278;DHT22;2662;51.194;6.614;2022-12-16T05:23:40;-6.30;99.90
5278;DHT22;2662;51.194;6.614;2022-12-16T05:26:25;-6.30;99.90
5278;DHT22;2662;51.194;6.614;2022-12-16T05:29:09;-6.30;99.90
5278;DHT22;2662;51.194;6.614;2022-12-16T05:31:53;-6.30;99.90
5278;DHT22;2662;51.194;6.614;2022-12-16T05:34:37;-6.30;99.90
5278;DHT22;2662;51.194;6.614;2022-12-16T05:37:21;-6.20;99.90
5278;DHT22;2662;51.194;6.614;2022-12-16T05:40:07;-6.10;99.90
5278;DHT22;2662;51.194;6.614;2022-12-16T05:42:53;-6.20;99.90
5278;DHT22;2662;51.194;6.614;2022-12-16T05:45:38;-6.20;99.90
5278;DHT22;2662;51.194;6.614;2022-12-16T05:48:22;-6.30;99.90
5278;DHT22;2662;51.194;6.614;2022-12-16T05:51:06;-6.30;99.90
5278;DHT22;2662;51.194;6.614;2022-12-16T05:53:50;-6.40;99.90
5278;DHT22;2662;51.194;6.614;2022-12-16T05:56:35;-6.30;99.90
5278;DHT22;2662;51.194;6.614;2022-12-16T05:59:20;-6.40;99.90
5278;DHT22;2662;51.194;6.614;2022-12-16T06:02:04;-6.40;99.90
5278;DHT22;2662;51.194;6.614;2022-12-16T06:04:48;-6.40;99.90
5278;DHT22;2662;51.194;6.614;2022-12-16T06:07:32;-6.40;99.90
5278;DHT22;2662;51.194;6.614;2022-12-16T06:10:17;-6.40;99.90
5278;DHT22;2662;51.194;6.614;2022-12-16T06:13:01;-6.40;99.90
5278;DHT22;2662;51.194;6.614;2022-12-16T06:15:46;-6.50;99.90
5278;DHT22;2662;51.194;6.614;2022-12-16T06:18:30;-6.50;99.90
5278;DHT22;2662;51.194;6.614;2022-12-16T06:21:14;-6.50;99.90
5278;DHT22;2662;51.194;6.614;2022-12-16T06:23:58;-6.50;99.90
5278;DHT22;2662;51.194;6.614;2022-12-16T06:26:42;-6.50;99.90
5278;DHT22;2662;51.194;6.614;2022-12-16T06:29:27;-6.40;99.90
5278;DHT22;2662;51.194;6.614;2022-12-16T06:32:12;-6.40;99.90
5278;DHT22;2662;51.194;6.614;2022-12-16T06:34:56;-6.40;99.90
5278;DHT22;2662;51.194;6.614;2022-12-16T06:37:40;-6.40;99.90
5278;DHT22;2662;51.194;6.614;2022-12-16T06:40:24;-6.40;99.90
5278;DHT22;2662;51.194;6.614;2022-12-16T06:43:09;-6.30;99.90
5278;DHT22;2662;51.194;6.614;2022-12-16T06:45:53;-6.40;99.90
5278;DHT22;2662;51.194;6.614;2022-12-16T06:48:39;-6.40;99.90
5278;DHT22;2662;51.194;6.614;2022-12-16T06:51:23;-6.40;99.90
5278;DHT22;2662;51.194;6.614;2022-12-16T06:54:07;-6.40;99.90
5278;DHT22;2662;51.194;6.614;2022-12-16T06:56:52;-6.40;99.90
5278;DHT22;2662;51.194;6.614;2022-12-16T06:59:36;-6.40;99.90
5278;DHT22;2662;51.194;6.614;2022-12-16T07:02:20;-6.30;99.90
5278;DHT22;2662;51.194;6.614;2022-12-16T07:05:06;-6.40;99.90
5278;DHT22;2662;51.194;6.614;2022-12-16T07:07:51;-6.40;99.90
5278;DHT22;2662;51.194;6.614;2022-12-16T07:10:35;-6.40;99.90
5278;DHT22;2662;51.194;6.614;2022-12-16T07:13:19;-6.20;99.90
5278;DHT22;2662;51.194;6.614;2022-12-16T07:16:05;-6.00;99.90
5278;DHT22;2662;51.194;6.614;2022-12-16T07:18:49;-5.70;99.90
5278;DHT22;2662;51.194;6.614;2022-12-16T07:21:34;-5.40;99.90
5278;DHT22;2662;51.194;6.614;2022-12-16T07:24:18;-5.30;99.90
5278;DHT22;2662;51.194;6.614;2022-12-16T07:27:03;-5.20;99.90
5278;DHT22;2662;51.194;6.614;2022-12-16T07:29:47;-5.10;99.90
5278;DHT22;2662;51.194;6.614;2022-12-16T07:32:31;-4.90;99.90
5278;DHT22;2662;51.194;6.614;2022-12-16T07:35:15;-4.80;99.90
5278;DHT22;2662;51.194;6.614;2022-12-16T07:38:01;-4.70;99.90
5278;DHT22;2662;51.194;6.614;2022-12-16T07:40:46;-4.70;99.90
5278;DHT22;2662;51.194;6.614;2022-12-16T07:43:31;-4.50;99.90
5278;DHT22;2662;51.194;6.614;2022-12-16T07:46:14;-4.50;99.90
5278;DHT22;2662;51.194;6.614;2022-12-16T07:48:58;-4.40;99.90
5278;DHT22;2662;51.194;6.614;2022-12-16T07:51:42;-4.40;99.90
5278;DHT22;2662;51.194;6.614;2022-12-16T07:54:27;-4.30;99.90
5278;DHT22;2662;51.194;6.614;2022-12-16T07:57:11;-4.30;99.90
5278;DHT22;2662;51.194;6.614;2022-12-16T07:59:55;-4.20;99.90
5278;DHT22;2662;51.194;6.614;2022-12-16T08:02:39;-4.10;99.90
5278;DHT22;2662;51.194;6.614;2022-12-16T08:05:24;-3.90;99.90
5278;DHT22;2662;51.194;6.614;2022-12-16T08:08:08;-3.70;99.90
5278;DHT22;2662;51.194;6.614;2022-12-16T08:10:53;-3.60;99.90
5278;DHT22;2662;51.194;6.614;2022-12-16T08:13:37;-3.40;99.90
5278;DHT22;2662;51.194;6.614;2022-12-16T08:16:22;-3.30;99.90
5278;DHT22;2662;51.194;6.614;2022-12-16T08:19:06;-3.10;99.90
5278;DHT22;2662;51.194;6.614;2022-12-16T08:21:50;-2.90;99.90
5278;DHT22;2662;51.194;6.614;2022-12-16T08:24:34;-2.80;99.90
5278;DHT22;2662;51.194;6.614;2022-12-16T08:27:19;-2.70;99.90
5278;DHT22;2662;51.194;6.614;2022-12-16T08:30:04;-2.70;99.90
5278;DHT22;2662;51.194;6.614;2022-12-16T08:32:49;-2.70;99.90
5278;DHT22;2662;51.194;6.614;2022-12-16T08:35:33;-2.60;99.90
5278;DHT22;2662;51.194;6.614;2022-12-16T08:38:17;-2.50;99.90
5278;DHT22;2662;51.194;6.614;2022-12-16T08:41:01;-2.50;99.90
5278;DHT22;2662;51.194;6.614;2022-12-16T08:43:47;-2.50;99.90
5278;DHT22;2662;51.194;6.614;2022-12-16T08:46:31;-2.60;99.90
5278;DHT22;2662;51.194;6.614;2022-12-16T08:49:27;-2.70;99.90
5278;DHT22;2662;51.194;6.614;2022-12-16T08:52:11;-2.80;99.90
5278;DHT22;2662;51.194;6.614;2022-12-16T08:54:55;-2.80;99.90
5278;DHT22;2662;51.194;6.614;2022-12-16T08:57:39;-2.80;99.90
5278;DHT22;2662;51.194;6.614;2022-12-16T09:00:36;-2.70;99.90
5278;DHT22;2662;51.194;6.614;2022-12-16T09:03:20;-2.60;99.90
5278;DHT22;2662;51.194;6.614;2022-12-16T09:06:05;-2.60;99.90
5278;DHT22;2662;51.194;6.614;2022-12-16T09:08:49;-2.50;99.90
5278;DHT22;2662;51.194;6.614;2022-12-16T09:11:33;-2.40;99.90
5278;DHT22;2662;51.194;6.614;2022-12-16T09:14:17;-2.40;99.90
5278;DHT22;2662;51.194;6.614;2022-12-16T09:17:02;-2.30;99.90
5278;DHT22;2662;51.194;6.614;2022-12-16T09:19:47;-2.10;99.90
5278;DHT22;2662;51.194;6.614;2022-12-16T09:22:31;-2.00;99.90
5278;DHT22;2662;51.194;6.614;2022-12-16T09:25:15;-1.90;99.90
5278;DHT22;2662;51.194;6.614;2022-12-16T09:27:59;-1.90;99.90
5278;DHT22;2662;51.194;6.614;2022-12-16T09:30:43;-1.90;99.90
5278;DHT22;2662;51.194;6.614;2022-12-16T09:33:29;-1.70;99.90
5278;DHT22;2662;51.194;6.614;2022-12-16T09:36:13;-1.70;99.90
5278;DHT22;2662;51.194;6.614;2022-12-16T09:38:57;-1.60;99.90
5278;DHT22;2662;51.194;6.614;2022-12-16T09:41:43;-1.40;99.90
5278;DHT22;2662;51.194;6.614;2022-12-16T09:44:35;-1.40;99.90
5278;DHT22;2662;51.194;6.614;2022-12-16T09:47:29;-1.30;99.90
5278;DHT22;2662;51.194;6.614;2022-12-16T09:50:22;-1.20;99.90
5278;DHT22;2662;51.194;6.614;2022-12-16T09:53:12;-1.00;99.90
5278;DHT22;2662;51.194;6.614;2022-12-16T09:55:57;-0.70;99.90
5278;DHT22;2662;51.194;6.614;2022-12-16T09:58:44;-0.40;99.90
5278;DHT22;2662;51.194;6.614;2022-12-16T10:01:34;-0.20;99.90
5278;DHT22;2662;51.194;6.614;2022-12-16T10:04:20;0.10;99.90
5278;DHT22;2662;51.194;6.614;2022-12-16T10:07:09;-0.10;99.90
5278;DHT22;2662;51.194;6.614;2022-12-16T10:09:59;0.00;99.90
5278;DHT22;2662;51.194;6.614;2022-12-16T10:12:48;0.30;99.90
5278;DHT22;2662;51.194;6.614;2022-12-16T10:15:41;0.50;99.90
5278;DHT22;2662;51.194;6.614;2022-12-16T10:18:38;0.60;99.90
5278;DHT22;2662;51.194;6.614;2022-12-16T10:21:27;0.70;99.90
5278;DHT22;2662;51.194;6.614;2022-12-16T10:24:23;0.70;99.90
5278;DHT22;2662;51.194;6.614;2022-12-16T10:27:13;0.90;99.90
5278;DHT22;2662;51.194;6.614;2022-12-16T10:29:58;1.00;99.90
5278;DHT22;2662;51.194;6.614;2022-12-16T10:32:46;1.10;99.90
5278;DHT22;2662;51.194;6.614;2022-12-16T10:35:34;1.20;99.90
5278;DHT22;2662;51.194;6.614;2022-12-16T10:38:21;1.40;99.90
5278;DHT22;2662;51.194;6.614;2022-12-16T10:41:09;1.40;99.90
5278;DHT22;2662;51.194;6.614;2022-12-16T10:43:56;1.50;99.90
5278;DHT22;2662;51.194;6.614;2022-12-16T10:46:41;1.70;99.90
5278;DHT22;2662;51.194;6.614;2022-12-16T10:49:25;1.90;99.90
5278;DHT22;2662;51.194;6.614;2022-12-16T10:52:11;1.90;99.90
5278;DHT22;2662;51.194;6.614;2022-12-16T10:55:05;2.10;99.90
5278;DHT22;2662;51.194;6.614;2022-12-16T10:57:59;2.30;99.90
5278;DHT22;2662;51.194;6.614;2022-12-16T11:00:47;2.40;99.90
5278;DHT22;2662;51.194;6.614;2022-12-16T11:03:32;2.40;99.90
5278;DHT22;2662;51.194;6.614;2022-12-16T11:06:21;2.40;99.90
5278;DHT22;2662;51.194;6.614;2022-12-16T11:09:17;2.40;99.90
5278;DHT22;2662;51.194;6.614;2022-12-16T11:12:22;2.40;99.90
5278;DHT22;2662;51.194;6.614;2022-12-16T11:15:24;2.40;99.90
5278;DHT22;2662;51.194;6.614;2022-12-16T11:18:11;2.40;99.90
5278;DHT22;2662;51.194;6.614;2022-12-16T11:21:09;2.50;99.90
5278;DHT22;2662;51.194;6.614;2022-12-16T11:24:13;2.60;99.90
5278;DHT22;2662;51.194;6.614;2022-12-16T11:26:58;2.80;99.90
5278;DHT22;2662;51.194;6.614;2022-12-16T11:29:52;3.00;99.90
5278;DHT22;2662;51.194;6.614;2022-12-16T11:32:41;2.80;99.90
5278;DHT22;2662;51.194;6.614;2022-12-16T11:35:43;2.90;99.90
5278;DHT22;2662;51.194;6.614;2022-12-16T11:38:34;3.00;99.90
5278;DHT22;2662;51.194;6.614;2022-12-16T11:41:28;3.10;99.90
5278;DHT22;2662;51.194;6.614;2022-12-16T11:44:18;3.10;99.90
5278;DHT22;2662;51.194;6.614;2022-12-16T11:47:10;3.00;99.90
5278;DHT22;2662;51.194;6.614;2022-12-16T11:49:57;3.10;99.90
5278;DHT22;2662;51.194;6.614;2022-12-16T11:52:52;3.40;99.90
5278;DHT22;2662;51.194;6.614;2022-12-16T11:55:41;3.30;99.90
5278;DHT22;2662;51.194;6.614;2022-12-16T11:58:32;3.40;99.90
5278;DHT22;2662;51.194;6.614;2022-12-16T12:01:23;3.50;99.90
5278;DHT22;2662;51.194;6.614;2022-12-16T12:04:07;3.60;99.90
5278;DHT22;2662;51.194;6.614;2022-12-16T12:07:04;3.80;99.90
5278;DHT22;2662;51.194;6.614;2022-12-16T12:09:57;3.80;99.90
5278;DHT22;2662;51.194;6.614;2022-12-16T12:12:50;3.90;99.90
5278;DHT22;2662;51.194;6.614;2022-12-16T12:15:41;3.80;99.90
5278;DHT22;2662;51.194;6.614;2022-12-16T12:18:36;3.90;99.90
5278;DHT22;2662;51.194;6.614;2022-12-16T12:21:24;3.90;99.90
5278;DHT22;2662;51.194;6.614;2022-12-16T12:24:18;4.00;99.90
5278;DHT22;2662;51.194;6.614;2022-12-16T12:27:11;3.90;99.90
5278;DHT22;2662;51.194;6.614;2022-12-16T12:30:02;4.10;99.90
5278;DHT22;2662;51.194;6.614;2022-12-16T12:33:03;4.10;99.90
5278;DHT22;2662;51.194;6.614;2022-12-16T12:35:57;4.00;99.90
5278;DHT22;2662;51.194;6.614;2022-12-16T12:38:51;3.90;99.90
5278;DHT22;2662;51.194;6.614;2022-12-16T12:41:53;3.90;99.90
5278;DHT22;2662;51.194;6.614;2022-12-16T12:44:47;3.80;99.90
5278;DHT22;2662;51.194;6.614;2022-12-16T12:47:45;3.60;99.90
5278;DHT22;2662;51.194;6.614;2022-12-16T12:50:38;3.50;99.90
5278;DHT22;2662;51.194;6.614;2022-12-16T12:53:32;3.30;99.90
5278;DHT22;2662;51.194;6.614;2022-12-16T12:56:25;3.30;99.90
5278;DHT22;2662;51.194;6.614;2022-12-16T12:59:19;3.30;99.90
5278;DHT22;2662;51.194;6.614;2022-12-16T13:02:10;3.20;99.90
5278;DHT22;2662;51.194;6.614;2022-12-16T13:04:56;3.10;99.90
5278;DHT22;2662;51.194;6.614;2022-12-16T13:07:41;3.00;99.90
5278;DHT22;2662;51.194;6.614;2022-12-16T13:10:36;3.00;99.90
5278;DHT22;2662;51.194;6.614;2022-12-16T13:13:31;2.90;99.90
5278;DHT22;2662;51.194;6.614;2022-12-16T13:16:55;2.80;99.90
5278;DHT22;2662;51.194;6.614;2022-12-16T13:19:43;2.80;99.90
5278;DHT22;2662;51.194;6.614;2022-12-16T13:22:39;2.70;99.90
5278;DHT22;2662;51.194;6.614;2022-12-16T13:25:43;2.50;99.90
5278;DHT22;2662;51.194;6.614;2022-12-16T13:28:33;2.50;99.90
5278;DHT22;2662;51.194;6.614;2022-12-16T13:31:18;2.50;99.90
5278;DHT22;2662;51.194;6.614;2022-12-16T13:34:19;2.40;99.90
5278;DHT22;2662;51.194;6.614;2022-12-16T13:37:05;2.50;99.90
5278;DHT22;2662;51.194;6.614;2022-12-16T13:40:01;2.40;99.90
5278;DHT22;2662;51.194;6.614;2022-12-16T13:42:53;2.50;99.90
5278;DHT22;2662;51.194;6.614;2022-12-16T13:45:40;2.50;99.90
5278;DHT22;2662;51.194;6.614;2022-12-16T13:48:34;2.40;99.90
5278;DHT22;2662;51.194;6.614;2022-12-16T13:55:02;2.30;99.90
5278;DHT22;2662;51.194;6.614;2022-12-16T13:58:01;2.30;99.90
5278;DHT22;2662;51.194;6.614;2022-12-16T14:00:55;2.30;99.90
5278;DHT22;2662;51.194;6.614;2022-12-16T14:03:43;2.30;99.90
5278;DHT22;2662;51.194;6.614;2022-12-16T14:06:29;2.30;99.90
5278;DHT22;2662;51.194;6.614;2022-12-16T14:09:23;2.20;99.90
5278;DHT22;2662;51.194;6.614;2022-12-16T14:12:19;2.20;99.90
5278;DHT22;2662;51.194;6.614;2022-12-16T14:15:18;2.20;99.90
5278;DHT22;2662;51.194;6.614;2022-12-16T14:18:09;2.10;99.90
5278;DHT22;2662;51.194;6.614;2022-12-16T14:21:03;2.00;99.90
5278;DHT22;2662;51.194;6.614;2022-12-16T14:23:50;1.80;99.90
5278;DHT22;2662;51.194;6.614;2022-12-16T14:26:36;1.80;99.90
5278;DHT22;2662;51.194;6.614;2022-12-16T14:29:30;1.90;99.90
5278;DHT22;2662;51.194;6.614;2022-12-16T14:32:23;2.00;99.90
5278;DHT22;2662;51.194;6.614;2022-12-16T14:35:12;2.10;99.90
5278;DHT22;2662;51.194;6.614;2022-12-16T14:37:56;2.10;99.90
5278;DHT22;2662;51.194;6.614;2022-12-16T14:40:41;2.10;99.90
5278;DHT22;2662;51.194;6.614;2022-12-16T14:43:25;2.20;99.90
5278;DHT22;2662;51.194;6.614;2022-12-16T14:46:24;2.20;99.90
5278;DHT22;2662;51.194;6.614;2022-12-16T14:49:19;2.20;99.90
5278;DHT22;2662;51.194;6.614;2022-12-16T14:52:15;2.20;99.90
5278;DHT22;2662;51.194;6.614;2022-12-16T14:55:09;2.20;99.90
5278;DHT22;2662;51.194;6.614;2022-12-16T14:58:02;2.20;99.90
5278;DHT22;2662;51.194;6.614;2022-12-16T15:00:48;2.20;99.90
5278;DHT22;2662;51.194;6.614;2022-12-16T15:03:36;2.20;99.90
5278;DHT22;2662;51.194;6.614;2022-12-16T15:06:25;2.10;99.90
5278;DHT22;2662;51.194;6.614;2022-12-16T15:09:16;2.10;99.90
5278;DHT22;2662;51.194;6.614;2022-12-16T15:12:02;2.00;99.90
5278;DHT22;2662;51.194;6.614;2022-12-16T15:14:47;2.00;99.90
5278;DHT22;2662;51.194;6.614;2022-12-16T15:17:40;2.00;99.90
5278;DHT22;2662;51.194;6.614;2022-12-16T15:20:28;2.00;99.90
5278;DHT22;2662;51.194;6.614;2022-12-16T15:23:16;2.00;99.90
5278;DHT22;2662;51.194;6.614;2022-12-16T15:26:02;2.00;99.90
5278;DHT22;2662;51.194;6.614;2022-12-16T15:28:47;2.00;99.90
5278;DHT22;2662;51.194;6.614;2022-12-16T15:31:33;2.00;99.90
5278;DHT22;2662;51.194;6.614;2022-12-16T15:34:31;2.00;99.90
5278;DHT22;2662;51.194;6.614;2022-12-16T15:37:22;2.00;99.90
5278;DHT22;2662;51.194;6.614;2022-12-16T15:40:29;2.00;99.90
5278;DHT22;2662;51.194;6.614;2022-12-16T15:43:24;1.90;99.90
5278;DHT22;2662;51.194;6.614;2022-12-16T15:46:20;1.90;99.90
5278;DHT22;2662;51.194;6.614;2022-12-16T15:49:13;1.90;99.90
5278;DHT22;2662;51.194;6.614;2022-12-16T15:51:59;1.90;99.90
5278;DHT22;2662;51.194;6.614;2022-12-16T15:54:52;1.80;99.90
5278;DHT22;2662;51.194;6.614;2022-12-16T15:57:38;1.90;99.90
5278;DHT22;2662;51.194;6.614;2022-12-16T16:00:24;1.90;99.90
5278;DHT22;2662;51.194;6.614;2022-12-16T16:03:17;1.90;99.90
5278;DHT22;2662;51.194;6.614;2022-12-16T16:06:02;1.80;99.90
5278;DHT22;2662;51.194;6.614;2022-12-16T16:08:49;1.90;99.90
5278;DHT22;2662;51.194;6.614;2022-12-16T16:11:35;1.90;99.90
5278;DHT22;2662;51.194;6.614;2022-12-16T16:14:20;1.80;99.90
5278;DHT22;2662;51.194;6.614;2022-12-16T16:17:12;1.70;99.90
5278;DHT22;2662;51.194;6.614;2022-12-16T16:20:04;1.80;99.90
5278;DHT22;2662;51.194;6.614;2022-12-16T16:22:48;1.90;99.90
5278;DHT22;2662;51.194;6.614;2022-12-16T16:25:32;1.90;99.90
5278;DHT22;2662;51.194;6.614;2022-12-16T16:28:18;1.90;99.90
5278;DHT22;2662;51.194;6.614;2022-12-16T16:31:02;1.90;99.90
5278;DHT22;2662;51.194;6.614;2022-12-16T16:33:46;2.00;99.90
5278;DHT22;2662;51.194;6.614;2022-12-16T16:36:30;2.10;99.90
5278;DHT22;2662;51.194;6.614;2022-12-16T16:39:14;2.10;99.90
5278;DHT22;2662;51.194;6.614;2022-12-16T16:41:59;2.10;99.90
5278;DHT22;2662;51.194;6.614;2022-12-16T16:44:44;2.10;99.90
5278;DHT22;2662;51.194;6.614;2022-12-16T16:47:28;2.20;99.90
5278;DHT22;2662;51.194;6.614;2022-12-16T16:50:13;2.30;99.90
5278;DHT22;2662;51.194;6.614;2022-12-16T16:52:57;2.30;99.90
5278;DHT22;2662;51.194;6.614;2022-12-16T16:55:42;2.30;99.90
5278;DHT22;2662;51.194;6.614;2022-12-16T16:58:28;2.20;99.90
5278;DHT22;2662;51.194;6.614;2022-12-16T17:01:16;2.30;99.90
5278;DHT22;2662;51.194;6.614;2022-12-16T17:04:01;2.30;99.90
5278;DHT22;2662;51.194;6.614;2022-12-16T17:06:45;2.30;99.90
5278;DHT22;2662;51.194;6.614;2022-12-16T17:09:30;2.40;99.90
5278;DHT22;2662;51.194;6.614;2022-12-16T17:12:18;2.40;99.90
5278;DHT22;2662;51.194;6.614;2022-12-16T17:15:13;2.40;99.90
5278;DHT22;2662;51.194;6.614;2022-12-16T17:18:00;2.40;99.90
5278;DHT22;2662;51.194;6.614;2022-12-16T17:20:44;2.40;99.90
5278;DHT22;2662;51.194;6.614;2022-12-16T17:23:28;2.40;99.90
5278;DHT22;2662;51.194;6.614;2022-12-16T17:26:12;2.40;99.90
5278;DHT22;2662;51.194;6.614;2022-12-16T17:29:00;2.40;99.90
5278;DHT22;2662;51.194;6.614;2022-12-16T17:31:55;2.50;99.90
5278;DHT22;2662;51.194;6.614;2022-12-16T17:34:43;2.50;99.90
5278;DHT22;2662;51.194;6.614;2022-12-16T17:37:27;2.40;99.90
5278;DHT22;2662;51.194;6.614;2022-12-16T17:40:11;2.50;99.90
5278;DHT22;2662;51.194;6.614;2022-12-16T17:42:55;2.50;99.90
5278;DHT22;2662;51.194;6.614;2022-12-16T17:45:39;2.50;99.90
5278;DHT22;2662;51.194;6.614;2022-12-16T17:48:20;2.40;99.90
5278;DHT22;2662;51.194;6.614;2022-12-16T17:51:06;2.40;99.90
5278;DHT22;2662;51.194;6.614;2022-12-16T17:53:50;2.40;99.90
5278;DHT22;2662;51.194;6.614;2022-12-16T17:56:34;2.40;99.90
5278;DHT22;2662;51.194;6.614;2022-12-16T17:59:18;2.40;99.90
5278;DHT22;2662;51.194;6.614;2022-12-16T18:02:03;2.40;99.90
5278;DHT22;2662;51.194;6.614;2022-12-16T18:04:47;2.40;99.90
5278;DHT22;2662;51.194;6.614;2022-12-16T18:07:32;2.40;99.90